createdAt,value
2019-01-19T00:00:07.309Z,90.00
2019-01-19T00:02:40.627Z,90.30
2019-01-19T00:05:32.018Z,90.40
2019-01-19T00:08:05.176Z,90.40
2019-01-19T00:10:56.671Z,90.50
2019-01-19T00:13:48.047Z,90.10
2019-01-19T00:16:27.573Z,90.10
2019-01-19T00:19:31.288Z,90.00
2019-01-19T00:22:13.705Z,90.00
2019-01-19T00:24:52.665Z,90.30
2019-01-19T00:27:43.660Z,90.30
2019-01-19T00:30:17.044Z,90.00
2019-01-19T00:32:56.145Z,90.20
2019-01-19T00:35:46.364Z,89.30
2019-01-19T00:38:36.222Z,90.00
2019-01-19T00:41:21.735Z,90.30
2019-01-19T00:43:55.607Z,90.00
2019-01-19T00:46:31.706Z,90.20
2019-01-19T00:49:10.759Z,90.00
2019-01-19T00:51:50.163Z,90.00
2019-01-19T00:54:23.667Z,90.30
2019-01-19T00:57:06.273Z,90.30
2019-01-19T00:59:37.316Z,90.20
2019-01-19T01:02:25.896Z,90.10
2019-01-19T01:05:08.325Z,90.00
2019-01-19T01:08:05.284Z,90.10
2019-01-19T01:10:41.172Z,90.20
2019-01-19T01:13:23.030Z,90.00
2019-01-19T01:15:59.109Z,89.80
2019-01-19T01:18:44.636Z,89.70
2019-01-19T01:21:51.363Z,90.00
2019-01-19T01:24:51.890Z,89.50
2019-01-19T01:27:37.478Z,90.00
2019-01-19T01:30:23.223Z,89.80
2019-01-19T01:33:02.452Z,89.50
2019-01-19T01:35:35.630Z,89.20
2019-01-19T01:38:08.671Z,89.60
2019-01-19T01:40:44.940Z,89.50
2019-01-19T01:43:20.614Z,90.00
2019-01-19T01:45:56.680Z,89.70
2019-01-19T01:48:36.487Z,89.20
2019-01-19T01:51:37.361Z,89.90
2019-01-19T01:54:19.392Z,88.80
2019-01-19T01:56:49.984Z,89.80
2019-01-19T01:59:25.048Z,89.60
2019-01-19T02:02:12.990Z,89.30
2019-01-19T02:04:49.234Z,89.70
2019-01-19T02:07:43.786Z,89.80
2019-01-19T02:10:26.087Z,89.20
2019-01-19T02:13:17.421Z,89.40
2019-01-19T02:16:20.946Z,88.60
2019-01-19T02:19:06.208Z,88.90
2019-01-19T02:21:42.208Z,89.90
2019-01-19T02:24:32.120Z,90.00
2019-01-19T02:27:05.514Z,90.10
2019-01-19T02:29:50.856Z,90.00
2019-01-19T02:32:36.474Z,89.10
2019-01-19T02:35:29.665Z,89.20
2019-01-19T02:38:02.843Z,89.30
2019-01-19T02:40:38.980Z,89.70
2019-01-19T02:43:30.346Z,90.00
2019-01-19T02:46:16.031Z,90.00
2019-01-19T02:49:05.765Z,89.50
2019-01-19T02:51:50.678Z,89.80
2019-01-19T02:54:23.976Z,90.20
2019-01-19T02:57:13.929Z,90.20
2019-01-19T03:00:02.409Z,90.10
2019-01-19T03:02:47.617Z,90.00
2019-01-19T03:05:20.849Z,90.20
2019-01-19T03:08:13.899Z,90.10
2019-01-19T03:10:49.698Z,89.90
2019-01-19T03:13:34.818Z,90.10
2019-01-19T03:16:36.743Z,90.30
2019-01-19T03:19:25.021Z,90.20
2019-01-19T03:22:13.382Z,90.30
2019-01-19T03:24:52.317Z,90.40
2019-01-19T03:27:28.609Z,90.50
2019-01-19T03:30:04.823Z,90.20
2019-01-19T03:32:50.728Z,90.30
2019-01-19T03:35:29.859Z,90.30
2019-01-19T03:38:08.581Z,90.40
2019-01-19T03:40:51.212Z,90.50
2019-01-19T03:43:47.408Z,90.40
2019-01-19T03:46:30.054Z,90.60
2019-01-19T03:49:12.777Z,90.60
2019-01-19T03:51:45.989Z,90.60
2019-01-19T03:54:22.417Z,90.70
2019-01-19T03:57:01.411Z,90.80
2019-01-19T03:59:52.707Z,90.60
2019-01-19T04:02:32.331Z,90.80
2019-01-19T04:05:34.506Z,90.80
2019-01-19T04:08:23.393Z,91.10
2019-01-19T04:11:02.935Z,90.90
2019-01-19T04:13:48.617Z,90.90
2019-01-19T04:16:24.653Z,91.00
2019-01-19T04:19:06.571Z,90.90
2019-01-19T04:21:46.089Z,90.90
2019-01-19T04:24:25.600Z,91.00
2019-01-19T04:26:55.944Z,91.00
2019-01-19T04:29:26.438Z,91.00
2019-01-19T04:31:57.022Z,91.00
2019-01-19T04:34:28.415Z,91.10
2019-01-19T04:36:59.198Z,91.00
2019-01-19T04:39:29.722Z,91.10
2019-01-19T04:42:00.148Z,91.20
2019-01-19T04:44:30.711Z,91.10
2019-01-19T04:47:01.676Z,91.20
2019-01-19T04:49:32.062Z,91.20
2019-01-19T04:52:02.732Z,91.50
2019-01-19T04:54:33.508Z,91.20
2019-01-19T04:57:04.270Z,91.30
2019-01-19T04:59:34.972Z,91.30
2019-01-19T05:02:05.877Z,91.30
2019-01-19T05:04:36.653Z,91.20
2019-01-19T05:07:07.407Z,91.20
2019-01-19T05:09:38.076Z,91.20
2019-01-19T05:12:09.008Z,91.60
2019-01-19T05:14:39.946Z,92.10
2019-01-19T05:17:10.526Z,92.50
2019-01-19T05:19:40.901Z,92.20
2019-01-19T05:22:11.501Z,92.20
2019-01-19T05:24:42.469Z,92.30
2019-01-19T05:27:13.116Z,92.10
2019-01-19T05:29:43.668Z,92.20
2019-01-19T05:32:15.170Z,92.10
2019-01-19T05:34:46.324Z,92.10
2019-01-19T05:37:16.869Z,92.20
2019-01-19T05:39:47.791Z,92.10
2019-01-19T05:42:20.908Z,92.10
2019-01-19T05:44:51.398Z,92.20
2019-01-19T05:47:21.954Z,92.40
2019-01-19T05:49:52.647Z,92.40
2019-01-19T05:52:23.398Z,92.30
2019-01-19T05:54:53.987Z,92.30
2019-01-19T05:57:24.739Z,92.30
2019-01-19T05:59:55.460Z,92.30
2019-01-19T06:02:29.628Z,92.30
2019-01-19T06:05:00.557Z,92.40
2019-01-19T06:07:31.358Z,92.40
2019-01-19T06:10:01.971Z,92.30
2019-01-19T06:12:32.788Z,92.40
2019-01-19T06:15:03.681Z,92.30
2019-01-19T06:17:34.553Z,92.30
2019-01-19T06:20:08.349Z,92.30
2019-01-19T06:22:38.813Z,92.30
2019-01-19T06:25:12.445Z,92.30
2019-01-19T06:27:43.377Z,92.50
2019-01-19T06:30:19.726Z,92.50
2019-01-19T06:32:50.358Z,92.60
2019-01-19T06:35:21.106Z,92.50
2019-01-19T06:37:51.876Z,92.50
2019-01-19T06:40:22.920Z,92.60
2019-01-19T06:42:54.061Z,92.60
2019-01-19T06:45:25.258Z,92.80
2019-01-19T06:47:55.573Z,92.50
2019-01-19T06:50:26.659Z,92.50
2019-01-19T06:52:57.472Z,92.60
2019-01-19T06:55:30.228Z,92.40
2019-01-19T06:58:00.622Z,92.40
2019-01-19T07:00:31.256Z,92.50
2019-01-19T07:03:01.981Z,92.50
2019-01-19T07:05:32.906Z,92.60
2019-01-19T07:08:03.377Z,92.60
2019-01-19T07:10:34.024Z,92.60
2019-01-19T07:13:04.703Z,92.80
2019-01-19T07:15:35.332Z,92.90
2019-01-19T07:18:06.382Z,92.90
2019-01-19T07:20:36.950Z,93.20
2019-01-19T07:23:07.634Z,93.10
2019-01-19T07:25:38.126Z,93.00
2019-01-19T07:28:08.698Z,92.90
2019-01-19T07:30:39.541Z,92.90
2019-01-19T07:33:10.084Z,93.10
2019-01-19T07:35:40.948Z,93.10
2019-01-19T07:38:11.440Z,93.10
2019-01-19T07:40:41.994Z,93.10
2019-01-19T07:43:13.028Z,93.40
2019-01-19T07:45:43.738Z,93.40
2019-01-19T07:48:14.530Z,93.60
2019-01-19T07:50:45.092Z,93.40
2019-01-19T07:53:16.027Z,93.30
2019-01-19T07:55:46.959Z,93.20
2019-01-19T07:58:17.904Z,93.30
2019-01-19T08:00:48.198Z,93.10
2019-01-19T08:03:18.674Z,93.30
2019-01-19T08:05:49.703Z,93.20
2019-01-19T08:08:20.180Z,93.30
2019-01-19T08:10:50.764Z,93.30
2019-01-19T08:13:21.907Z,93.40
2019-01-19T08:15:52.439Z,93.30
2019-01-19T08:18:23.225Z,93.30
2019-01-19T08:20:53.999Z,93.50
2019-01-19T08:23:26.147Z,93.20
2019-01-19T08:25:56.810Z,93.40
2019-01-19T08:28:27.251Z,93.30
2019-01-19T08:30:58.007Z,93.50
2019-01-19T08:33:28.476Z,93.50
2019-01-19T08:35:59.363Z,93.30
2019-01-19T08:38:29.921Z,93.40
2019-01-19T08:41:00.998Z,93.60
2019-01-19T08:43:33.635Z,93.60
2019-01-19T08:46:04.708Z,93.70
2019-01-19T08:48:36.798Z,93.70
2019-01-19T08:51:07.842Z,93.90
2019-01-19T08:53:41.472Z,94.20
2019-01-19T08:56:12.108Z,94.20
2019-01-19T08:58:42.587Z,94.50
2019-01-19T09:01:13.586Z,94.60
2019-01-19T09:03:44.160Z,94.60
2019-01-19T09:06:14.736Z,94.70
2019-01-19T09:08:45.818Z,94.60
2019-01-19T09:11:16.393Z,94.40
2019-01-19T09:13:47.135Z,94.10
2019-01-19T09:16:17.888Z,94.20
2019-01-19T09:18:48.655Z,94.20
2019-01-19T09:21:21.187Z,94.00
2019-01-19T09:23:53.499Z,94.10
2019-01-19T09:26:24.594Z,94.20
2019-01-19T09:28:55.260Z,94.20
2019-01-19T09:31:25.940Z,94.20
2019-01-19T09:33:56.707Z,94.20
2019-01-19T09:36:29.789Z,94.10
2019-01-19T09:39:00.538Z,94.10
2019-01-19T09:41:31.207Z,94.00
2019-01-19T09:44:01.738Z,94.00
2019-01-19T09:46:32.393Z,93.90
2019-01-19T09:49:03.354Z,93.80
2019-01-19T09:51:34.097Z,93.80
2019-01-19T09:54:05.165Z,93.80
2019-01-19T09:56:35.807Z,93.90
2019-01-19T09:59:06.699Z,93.90
2019-01-19T10:01:37.439Z,94.00
2019-01-19T10:04:08.615Z,94.00
2019-01-19T10:06:39.295Z,93.90
2019-01-19T10:09:09.833Z,94.00
2019-01-19T10:11:40.242Z,94.10
2019-01-19T10:14:11.237Z,94.00
2019-01-19T10:16:41.863Z,94.00
2019-01-19T10:19:12.468Z,93.90
2019-01-19T10:21:43.006Z,93.60
2019-01-19T10:24:13.580Z,93.70
2019-01-19T10:26:44.085Z,93.70
2019-01-19T10:29:15.078Z,93.60
2019-01-19T10:31:45.408Z,93.70
2019-01-19T10:34:19.174Z,93.40
2019-01-19T10:36:49.637Z,93.40
2019-01-19T10:39:20.458Z,93.40
2019-01-19T10:41:51.154Z,93.30
2019-01-19T10:44:21.746Z,93.30
2019-01-19T10:46:52.136Z,93.20
2019-01-19T10:49:23.004Z,93.10
2019-01-19T10:51:59.334Z,93.10
2019-01-19T10:54:26.002Z,93.10
2019-01-19T10:56:56.695Z,93.00
2019-01-19T10:59:27.374Z,93.00
2019-01-19T11:01:58.448Z,92.80
2019-01-19T11:04:28.988Z,92.80
2019-01-19T11:06:59.747Z,92.70
2019-01-19T11:09:30.257Z,92.60
2019-01-19T11:12:00.910Z,92.50
2019-01-19T11:14:31.478Z,92.50
2019-01-19T11:17:02.146Z,92.50
2019-01-19T11:19:32.741Z,92.40
2019-01-19T11:22:03.199Z,92.30
2019-01-19T11:24:33.839Z,92.20
2019-01-19T11:27:04.607Z,92.20
2019-01-19T11:29:35.461Z,92.10
2019-01-19T11:32:06.193Z,92.10
2019-01-19T11:34:37.069Z,92.00
2019-01-19T11:37:07.752Z,92.00
2019-01-19T11:39:39.855Z,92.00
2019-01-19T11:42:10.567Z,91.90
2019-01-19T11:44:40.948Z,91.90
2019-01-19T11:47:11.468Z,91.80
2019-01-19T11:49:42.513Z,91.70
2019-01-19T11:52:13.294Z,91.70
2019-01-19T11:54:44.311Z,91.60
2019-01-19T11:57:14.959Z,91.70
2019-01-19T11:59:45.408Z,91.80
2019-01-19T12:02:15.891Z,91.70
2019-01-19T12:04:46.595Z,91.60
2019-01-19T12:07:18.435Z,91.60
2019-01-19T12:09:49.101Z,91.60
2019-01-19T12:12:20.048Z,91.50
2019-01-19T12:14:50.654Z,91.50
2019-01-19T12:17:21.789Z,91.50
2019-01-19T12:19:52.535Z,91.60
2019-01-19T12:22:23.464Z,91.50
2019-01-19T12:24:54.220Z,91.40
2019-01-19T12:27:24.952Z,91.40
2019-01-19T12:29:56.069Z,91.40
2019-01-19T12:32:26.819Z,91.40
2019-01-19T12:34:57.395Z,91.40
2019-01-19T12:37:27.831Z,91.30
2019-01-19T12:39:58.290Z,91.40
2019-01-19T12:42:31.588Z,91.30
2019-01-19T12:45:07.695Z,91.30
2019-01-19T12:47:38.990Z,91.40
2019-01-19T12:50:12.082Z,91.40
2019-01-19T12:52:42.899Z,91.40
2019-01-19T12:55:14.665Z,91.40
2019-01-19T12:57:45.460Z,91.50
2019-01-19T13:00:21.278Z,91.50
2019-01-19T13:02:52.261Z,91.40
2019-01-19T13:05:31.259Z,91.50
2019-01-19T13:08:02.006Z,91.40
2019-01-19T13:10:35.210Z,91.30
2019-01-19T13:13:06.918Z,91.50
2019-01-19T13:16:01.274Z,91.20
2019-01-19T13:18:43.440Z,91.40
2019-01-19T13:21:34.925Z,91.30
2019-01-19T13:24:20.083Z,91.30
2019-01-19T13:27:16.059Z,91.10
2019-01-19T13:30:10.835Z,91.20
2019-01-19T13:32:59.047Z,91.10
2019-01-19T13:35:52.280Z,91.20
2019-01-19T13:38:41.787Z,91.00
2019-01-19T13:41:24.382Z,91.80
2019-01-19T13:44:09.721Z,91.80
2019-01-19T13:46:58.469Z,91.50
2019-01-19T13:49:51.185Z,91.20
2019-01-19T13:52:24.472Z,91.00
2019-01-19T13:54:57.872Z,91.10
2019-01-19T13:57:37.382Z,91.00
2019-01-19T14:00:19.301Z,91.20
2019-01-19T14:03:14.031Z,91.20
2019-01-19T14:06:02.675Z,91.30
2019-01-19T14:08:49.250Z,91.30
2019-01-19T14:11:19.910Z,91.30
2019-01-19T14:14:11.457Z,91.30
2019-01-19T14:16:47.805Z,91.20
2019-01-19T14:19:27.089Z,91.40
2019-01-19T14:22:19.961Z,91.40
2019-01-19T14:24:59.079Z,91.40
2019-01-19T14:27:38.416Z,91.50
2019-01-19T14:30:37.661Z,91.30
2019-01-19T14:33:19.407Z,91.40
2019-01-19T14:36:01.036Z,91.40
2019-01-19T14:38:43.486Z,91.40
2019-01-19T14:41:51.356Z,91.30
2019-01-19T14:44:53.288Z,91.40
2019-01-19T14:47:32.195Z,91.40
2019-01-19T14:50:21.685Z,91.40
2019-01-19T14:53:28.517Z,91.40
2019-01-19T14:56:23.268Z,91.40
2019-01-19T14:59:08.360Z,91.40
2019-01-19T15:01:44.537Z,91.40
2019-01-19T15:04:39.348Z,91.40
2019-01-19T15:07:45.999Z,91.40
2019-01-19T15:10:25.474Z,91.30
2019-01-19T15:13:01.918Z,91.20
2019-01-19T15:15:41.095Z,91.20
2019-01-19T15:18:29.594Z,91.20
2019-01-19T15:21:11.563Z,91.10
2019-01-19T15:23:54.028Z,91.10
2019-01-19T15:26:42.635Z,91.20
2019-01-19T15:29:31.245Z,91.10
2019-01-19T15:32:28.357Z,91.00
2019-01-19T15:35:04.609Z,91.00
2019-01-19T15:37:50.230Z,90.80
2019-01-19T15:40:40.462Z,90.80
2019-01-19T15:43:30.532Z,90.90
2019-01-19T15:46:20.396Z,90.90
2019-01-19T15:49:11.945Z,90.70
2019-01-19T15:52:03.499Z,90.80
2019-01-19T15:55:01.236Z,90.70
2019-01-19T15:57:52.345Z,90.70
2019-01-19T16:00:28.194Z,90.80
2019-01-19T16:03:05.733Z,90.90
2019-01-19T16:05:44.905Z,90.70
2019-01-19T16:08:23.962Z,90.70
2019-01-19T16:11:03.176Z,90.60
2019-01-19T16:13:39.532Z,90.60
2019-01-19T16:16:30.012Z,90.40
2019-01-19T16:19:24.433Z,90.40
2019-01-19T16:22:12.770Z,90.40
2019-01-19T16:24:46.011Z,90.40
2019-01-19T16:27:24.996Z,90.40
2019-01-19T16:30:16.250Z,90.30
2019-01-19T16:33:12.044Z,90.30
2019-01-19T16:35:51.992Z,90.30
2019-01-19T16:38:37.404Z,90.40
2019-01-19T16:41:38.309Z,90.10
2019-01-19T16:44:20.646Z,90.10
2019-01-19T16:47:14.989Z,90.10
2019-01-19T16:50:21.885Z,90.00
2019-01-19T16:52:57.985Z,90.00
2019-01-19T16:55:34.042Z,90.10
2019-01-19T16:58:10.971Z,89.60
2019-01-19T17:00:59.163Z,90.00
2019-01-19T17:03:41.801Z,90.00
2019-01-19T17:06:30.757Z,89.90
2019-01-19T17:09:33.059Z,89.80
2019-01-19T17:12:15.785Z,90.00
2019-01-19T17:15:16.189Z,90.00
2019-01-19T17:18:05.805Z,89.80
2019-01-19T17:20:56.153Z,89.40
2019-01-19T17:23:41.667Z,89.40
2019-01-19T17:26:23.037Z,88.90
2019-01-19T17:29:18.759Z,89.30
2019-01-19T17:32:15.096Z,89.10
2019-01-19T17:34:56.134Z,89.40
2019-01-19T17:37:35.419Z,89.00
2019-01-19T17:40:31.782Z,89.40
2019-01-19T17:43:26.433Z,89.30
2019-01-19T17:46:12.276Z,88.90
2019-01-19T17:48:48.337Z,89.20
2019-01-19T17:51:33.926Z,89.20
2019-01-19T17:54:28.527Z,89.10
2019-01-19T17:57:10.880Z,88.50
2019-01-19T18:00:12.002Z,89.00
2019-01-19T18:03:07.177Z,89.10
2019-01-19T18:05:55.542Z,89.20
2019-01-19T18:08:59.280Z,89.20
2019-01-19T18:11:38.399Z,88.60
2019-01-19T18:14:18.108Z,88.90
2019-01-19T18:17:23.157Z,88.90
2019-01-19T18:20:01.764Z,88.90
2019-01-19T18:22:35.187Z,88.90
2019-01-19T18:25:30.023Z,88.30
2019-01-19T18:28:03.385Z,89.00
2019-01-19T18:30:40.093Z,88.70
2019-01-19T18:33:22.350Z,89.40
2019-01-19T18:36:01.748Z,89.20
2019-01-19T18:39:08.792Z,89.40
2019-01-19T18:41:51.767Z,89.50
2019-01-19T18:44:40.772Z,88.70
2019-01-19T18:47:14.005Z,89.10
2019-01-19T18:49:56.312Z,89.10
2019-01-19T18:52:48.903Z,88.40
2019-01-19T18:55:25.082Z,88.90
2019-01-19T18:57:58.700Z,88.70
2019-01-19T19:00:44.216Z,89.10
2019-01-19T19:03:29.642Z,89.20
2019-01-19T19:06:09.239Z,89.10
2019-01-19T19:08:51.467Z,89.30
2019-01-19T19:11:34.159Z,89.40
2019-01-19T19:14:11.006Z,89.10
2019-01-19T19:16:52.844Z,89.00
2019-01-19T19:19:41.272Z,89.20
2019-01-19T19:22:20.608Z,89.30
2019-01-19T19:25:10.636Z,89.00
2019-01-19T19:27:49.602Z,89.40
2019-01-19T19:30:25.575Z,89.20
2019-01-19T19:33:20.005Z,89.30
2019-01-19T19:36:08.304Z,89.80
2019-01-19T19:38:47.754Z,88.80
2019-01-19T19:41:42.854Z,89.10
2019-01-19T19:44:31.364Z,89.30
2019-01-19T19:47:16.598Z,88.80
2019-01-19T19:49:56.347Z,88.80
2019-01-19T19:52:27.960Z,88.80
2019-01-19T19:54:57.352Z,88.60
2019-01-19T19:57:28.188Z,88.40
2019-01-19T19:59:58.640Z,88.10
2019-01-19T20:02:30.023Z,88.80
2019-01-19T20:05:00.533Z,88.70
2019-01-19T20:07:31.518Z,87.80
2019-01-19T20:10:02.304Z,88.20
2019-01-19T20:12:38.873Z,88.50
2019-01-19T20:15:10.820Z,88.80
2019-01-19T20:17:41.518Z,88.00
2019-01-19T20:20:12.706Z,88.40
2019-01-19T20:22:43.292Z,88.40
2019-01-19T20:25:13.798Z,88.30
2019-01-19T20:27:44.567Z,87.70
2019-01-19T20:30:17.491Z,88.10
2019-01-19T20:32:47.961Z,88.80
2019-01-19T20:35:21.042Z,87.80
2019-01-19T20:37:51.761Z,88.50
2019-01-19T20:40:24.444Z,88.00
2019-01-19T20:42:54.676Z,88.10
2019-01-19T20:45:26.667Z,88.20
2019-01-19T20:47:57.445Z,87.70
2019-01-19T20:50:28.147Z,88.00
2019-01-19T20:52:58.679Z,87.90
2019-01-19T20:55:29.068Z,88.20
2019-01-19T20:57:59.864Z,88.20
2019-01-19T21:00:30.686Z,87.70
2019-01-19T21:03:01.141Z,87.50
2019-01-19T21:05:31.765Z,87.90
2019-01-19T21:08:02.658Z,88.20
2019-01-19T21:10:33.208Z,88.40
2019-01-19T21:13:03.930Z,89.10
2019-01-19T21:15:36.226Z,88.90
2019-01-19T21:18:06.889Z,89.40
2019-01-19T21:20:37.928Z,89.20
2019-01-19T21:23:10.359Z,89.20
2019-01-19T21:25:41.434Z,89.30
2019-01-19T21:28:12.380Z,89.00
2019-01-19T21:30:44.367Z,89.40
2019-01-19T21:33:14.919Z,89.20
2019-01-19T21:35:45.405Z,89.20
2019-01-19T21:38:16.098Z,88.40
2019-01-19T21:40:46.593Z,88.20
2019-01-19T21:43:17.097Z,88.20
2019-01-19T21:45:47.986Z,87.50
2019-01-19T21:48:18.723Z,87.60
2019-01-19T21:50:49.429Z,87.00
2019-01-19T21:53:20.039Z,87.00
2019-01-19T21:55:53.090Z,88.00
2019-01-19T21:58:23.905Z,88.20
2019-01-19T22:00:54.669Z,88.20
2019-01-19T22:03:25.718Z,88.40
2019-01-19T22:05:56.422Z,88.30
2019-01-19T22:08:27.161Z,88.50
2019-01-19T22:10:57.793Z,88.20
2019-01-19T22:13:28.619Z,88.60
2019-01-19T22:15:59.390Z,88.20
2019-01-19T22:18:32.024Z,87.90
2019-01-19T22:21:02.779Z,87.10
2019-01-19T22:23:33.981Z,87.20
2019-01-19T22:26:04.860Z,87.50
2019-01-19T22:28:37.017Z,86.50
2019-01-19T22:31:07.890Z,87.10
2019-01-19T22:33:38.914Z,86.80
2019-01-19T22:36:09.546Z,86.90
2019-01-19T22:38:40.350Z,87.30
2019-01-19T22:41:12.694Z,87.20
2019-01-19T22:43:43.948Z,86.50
2019-01-19T22:46:14.662Z,87.00
2019-01-19T22:48:45.471Z,87.00
2019-01-19T22:51:16.245Z,86.90
2019-01-19T22:53:46.902Z,87.10
2019-01-19T22:56:17.758Z,87.20
2019-01-19T22:58:48.630Z,86.90
2019-01-19T23:01:28.496Z,87.50
2019-01-19T23:03:59.648Z,87.80
2019-01-19T23:06:30.276Z,86.70
2019-01-19T23:09:01.178Z,86.30
2019-01-19T23:11:33.944Z,87.00
2019-01-19T23:14:05.839Z,88.10
2019-01-19T23:16:36.645Z,88.00
2019-01-19T23:19:07.631Z,87.70
2019-01-19T23:21:38.506Z,88.40
2019-01-19T23:24:09.519Z,88.60
2019-01-19T23:26:40.482Z,88.70
2019-01-19T23:29:11.249Z,88.90
2019-01-19T23:31:42.045Z,88.70
2019-01-19T23:34:12.905Z,87.60
2019-01-19T23:36:44.570Z,87.50
2019-01-19T23:39:16.407Z,86.80
2019-01-19T23:41:47.614Z,86.90
2019-01-19T23:44:18.757Z,87.30
2019-01-19T23:46:49.515Z,87.80
2019-01-19T23:49:20.703Z,87.70
2019-01-19T23:51:51.182Z,88.10
2019-01-19T23:54:22.156Z,87.50
2019-01-19T23:56:53.931Z,87.40
2019-01-19T23:59:24.952Z,87.40
